sensor_id;sensor_type;location;lat;lon;timestamp;temperature;humidity
10312;DHT22;5201;48.776;9.128;2023-07-28T00:01:30;19.60;99.90
10312;DHT22;5201;48.776;9.128;2023-07-28T00:03:56;19.60;99.90
10312;DHT22;5201;48.776;9.128;2023-07-28T00:06:23;19.60;99.90
10312;DHT22;5201;48.776;9.128;2023-07-28T00:08:49;19.90;99.90
10312;DHT22;5201;48.776;9.128;2023-07-28T00:11:15;19.60;99.90
10312;DHT22;5201;48.776;9.128;2023-07-28T00:13:42;19.50;99.90
10312;DHT22;5201;48.776;9.128;2023-07-28T00:16:09;20.00;99.90
10312;DHT22;5201;48.776;9.128;2023-07-28T00:18:35;19.50;99.90
10312;DHT22;5201;48.776;9.128;2023-07-28T00:21:00;19.70;99.90
10312;DHT22;5201;48.776;9.128;2023-07-28T00:23:26;19.40;99.90
10312;DHT22;5201;48.776;9.128;2023-07-28T00:25:52;19.40;99.90
10312;DHT22;5201;48.776;9.128;2023-07-28T00:28:17;19.40;99.90
10312;DHT22;5201;48.776;9.128;2023-07-28T00:30:43;19.70;99.90
10312;DHT22;5201;48.776;9.128;2023-07-28T00:33:08;19.40;99.90
10312;DHT22;5201;48.776;9.128;2023-07-28T00:35:34;19.30;99.90
10312;DHT22;5201;48.776;9.128;2023-07-28T00:37:59;19.30;99.90
10312;DHT22;5201;48.776;9.128;2023-07-28T00:40:25;19.30;99.90
10312;DHT22;5201;48.776;9.128;2023-07-28T00:42:51;19.30;99.90
10312;DHT22;5201;48.776;9.128;2023-07-28T00:45:16;19.30;99.90
10312;DHT22;5201;48.776;9.128;2023-07-28T00:47:42;19.20;99.90
10312;DHT22;5201;48.776;9.128;2023-07-28T00:50:11;19.30;99.90
10312;DHT22;5201;48.776;9.128;2023-07-28T00:52:37;19.20;99.90
10312;DHT22;5201;48.776;9.128;2023-07-28T00:55:03;19.20;99.90
10312;DHT22;5201;48.776;9.128;2023-07-28T00:57:29;19.20;99.90
10312;DHT22;5201;48.776;9.128;2023-07-28T00:59:55;19.30;99.90
10312;DHT22;5201;48.776;9.128;2023-07-28T01:02:20;19.20;99.90
10312;DHT22;5201;48.776;9.128;2023-07-28T01:04:47;19.10;99.90
10312;DHT22;5201;48.776;9.128;2023-07-28T01:07:25;19.20;99.90
10312;DHT22;5201;48.776;9.128;2023-07-28T01:10:13;19.20;99.90
10312;DHT22;5201;48.776;9.128;2023-07-28T01:12:40;19.10;99.90
10312;DHT22;5201;48.776;9.128;2023-07-28T01:15:06;19.10;99.90
10312;DHT22;5201;48.776;9.128;2023-07-28T01:17:32;19.00;99.90
10312;DHT22;5201;48.776;9.128;2023-07-28T01:19:58;19.10;99.90
10312;DHT22;5201;48.776;9.128;2023-07-28T01:22:54;18.90;99.90
10312;DHT22;5201;48.776;9.128;2023-07-28T01:25:43;18.90;99.90
10312;DHT22;5201;48.776;9.128;2023-07-28T01:28:13;18.90;99.90
10312;DHT22;5201;48.776;9.128;2023-07-28T01:30:38;19.00;99.90
10312;DHT22;5201;48.776;9.128;2023-07-28T01:33:07;19.30;99.90
10312;DHT22;5201;48.776;9.128;2023-07-28T01:35:35;18.90;99.90
10312;DHT22;5201;48.776;9.128;2023-07-28T01:38:01;19.00;99.90
10312;DHT22;5201;48.776;9.128;2023-07-28T01:40:26;18.90;99.90
10312;DHT22;5201;48.776;9.128;2023-07-28T01:42:52;18.90;99.90
10312;DHT22;5201;48.776;9.128;2023-07-28T01:45:18;18.80;99.90
10312;DHT22;5201;48.776;9.128;2023-07-28T01:47:43;18.80;99.90
10312;DHT22;5201;48.776;9.128;2023-07-28T01:50:09;18.80;99.90
10312;DHT22;5201;48.776;9.128;2023-07-28T01:52:34;18.70;99.90
10312;DHT22;5201;48.776;9.128;2023-07-28T01:55:00;18.70;99.90
10312;DHT22;5201;48.776;9.128;2023-07-28T01:57:27;18.70;99.90
10312;DHT22;5201;48.776;9.128;2023-07-28T01:59:54;18.70;99.90
10312;DHT22;5201;48.776;9.128;2023-07-28T02:02:19;18.80;99.90
10312;DHT22;5201;48.776;9.128;2023-07-28T02:04:45;18.80;99.90
10312;DHT22;5201;48.776;9.128;2023-07-28T02:07:11;18.80;99.90
10312;DHT22;5201;48.776;9.128;2023-07-28T02:09:37;18.80;99.90
10312;DHT22;5201;48.776;9.128;2023-07-28T02:12:02;18.80;99.90
10312;DHT22;5201;48.776;9.128;2023-07-28T02:14:28;18.80;99.90
10312;DHT22;5201;48.776;9.128;2023-07-28T02:16:53;18.80;99.90
10312;DHT22;5201;48.776;9.128;2023-07-28T02:19:19;19.00;99.90
10312;DHT22;5201;48.776;9.128;2023-07-28T02:21:44;18.90;99.90
10312;DHT22;5201;48.776;9.128;2023-07-28T02:24:10;19.00;99.90
10312;DHT22;5201;48.776;9.128;2023-07-28T02:26:36;19.00;99.90
10312;DHT22;5201;48.776;9.128;2023-07-28T02:29:01;19.10;99.90
10312;DHT22;5201;48.776;9.128;2023-07-28T02:31:27;19.10;99.90
10312;DHT22;5201;48.776;9.128;2023-07-28T02:33:52;19.10;99.90
10312;DHT22;5201;48.776;9.128;2023-07-28T02:36:18;19.10;99.90
10312;DHT22;5201;48.776;9.128;2023-07-28T02:38:43;19.00;99.90
10312;DHT22;5201;48.776;9.128;2023-07-28T02:41:10;19.10;99.90
10312;DHT22;5201;48.776;9.128;2023-07-28T02:43:35;19.10;99.90
10312;DHT22;5201;48.776;9.128;2023-07-28T02:46:01;19.10;99.90
10312;DHT22;5201;48.776;9.128;2023-07-28T02:48:26;19.00;99.90
10312;DHT22;5201;48.776;9.128;2023-07-28T02:50:52;19.00;99.90
10312;DHT22;5201;48.776;9.128;2023-07-28T02:53:18;19.10;99.90
10312;DHT22;5201;48.776;9.128;2023-07-28T02:55:44;19.10;99.90
10312;DHT22;5201;48.776;9.128;2023-07-28T02:58:10;19.10;99.90
10312;DHT22;5201;48.776;9.128;2023-07-28T03:00:40;19.10;99.90
10312;DHT22;5201;48.776;9.128;2023-07-28T03:03:07;19.10;99.90
10312;DHT22;5201;48.776;9.128;2023-07-28T03:05:33;19.50;99.90
10312;DHT22;5201;48.776;9.128;2023-07-28T03:07:59;19.20;99.90
10312;DHT22;5201;48.776;9.128;2023-07-28T03:10:25;19.20;99.90
10312;DHT22;5201;48.776;9.128;2023-07-28T03:12:50;19.20;99.90
10312;DHT22;5201;48.776;9.128;2023-07-28T03:15:16;19.20;99.90
10312;DHT22;5201;48.776;9.128;2023-07-28T03:17:42;19.20;99.90
10312;DHT22;5201;48.776;9.128;2023-07-28T03:20:07;19.10;99.90
10312;DHT22;5201;48.776;9.128;2023-07-28T03:22:33;19.20;99.90
10312;DHT22;5201;48.776;9.128;2023-07-28T03:24:59;19.20;99.90
10312;DHT22;5201;48.776;9.128;2023-07-28T03:27:24;19.20;99.90
10312;DHT22;5201;48.776;9.128;2023-07-28T03:29:51;19.30;99.90
10312;DHT22;5201;48.776;9.128;2023-07-28T03:32:16;19.20;99.90
10312;DHT22;5201;48.776;9.128;2023-07-28T03:34:42;19.30;99.90
10312;DHT22;5201;48.776;9.128;2023-07-28T03:37:07;19.30;99.90
10312;DHT22;5201;48.776;9.128;2023-07-28T03:39:33;19.20;99.90
10312;DHT22;5201;48.776;9.128;2023-07-28T03:41:59;19.10;99.90
10312;DHT22;5201;48.776;9.128;2023-07-28T03:44:25;19.10;99.90
10312;DHT22;5201;48.776;9.128;2023-07-28T03:46:50;19.00;99.90
10312;DHT22;5201;48.776;9.128;2023-07-28T03:49:16;19.00;99.90
10312;DHT22;5201;48.776;9.128;2023-07-28T03:51:41;19.00;99.90
10312;DHT22;5201;48.776;9.128;2023-07-28T03:54:07;19.00;99.90
10312;DHT22;5201;48.776;9.128;2023-07-28T03:56:32;18.90;99.90
10312;DHT22;5201;48.776;9.128;2023-07-28T03:58:58;18.90;99.90
10312;DHT22;5201;48.776;9.128;2023-07-28T04:01:23;19.00;99.90
10312;DHT22;5201;48.776;9.128;2023-07-28T04:03:49;19.00;99.90
10312;DHT22;5201;48.776;9.128;2023-07-28T04:06:15;19.20;99.90
10312;DHT22;5201;48.776;9.128;2023-07-28T04:08:41;19.00;99.90
10312;DHT22;5201;48.776;9.128;2023-07-28T04:11:06;18.90;99.90
10312;DHT22;5201;48.776;9.128;2023-07-28T04:13:33;18.90;99.90
10312;DHT22;5201;48.776;9.128;2023-07-28T04:15:59;19.00;99.90
10312;DHT22;5201;48.776;9.128;2023-07-28T04:18:25;19.00;99.90
10312;DHT22;5201;48.776;9.128;2023-07-28T04:20:51;19.00;99.90
10312;DHT22;5201;48.776;9.128;2023-07-28T04:23:16;19.10;99.90
10312;DHT22;5201;48.776;9.128;2023-07-28T04:25:42;19.10;99.90
10312;DHT22;5201;48.776;9.128;2023-07-28T04:28:07;19.20;99.90
10312;DHT22;5201;48.776;9.128;2023-07-28T04:30:33;19.20;99.90
10312;DHT22;5201;48.776;9.128;2023-07-28T04:32:58;19.20;99.90
10312;DHT22;5201;48.776;9.128;2023-07-28T04:35:24;19.20;99.90
10312;DHT22;5201;48.776;9.128;2023-07-28T04:37:49;19.20;99.90
10312;DHT22;5201;48.776;9.128;2023-07-28T04:40:15;19.10;99.90
10312;DHT22;5201;48.776;9.128;2023-07-28T04:42:41;19.10;99.90
10312;DHT22;5201;48.776;9.128;2023-07-28T04:45:07;19.20;99.90
10312;DHT22;5201;48.776;9.128;2023-07-28T04:47:32;19.20;99.90
10312;DHT22;5201;48.776;9.128;2023-07-28T04:49:58;19.20;99.90
10312;DHT22;5201;48.776;9.128;2023-07-28T04:52:23;19.30;99.90
10312;DHT22;5201;48.776;9.128;2023-07-28T04:54:49;19.30;99.90
10312;DHT22;5201;48.776;9.128;2023-07-28T04:57:15;19.20;99.90
10312;DHT22;5201;48.776;9.128;2023-07-28T04:59:40;19.20;99.90
10312;DHT22;5201;48.776;9.128;2023-07-28T05:02:07;19.20;99.90
10312;DHT22;5201;48.776;9.128;2023-07-28T05:04:33;19.10;99.90
10312;DHT22;5201;48.776;9.128;2023-07-28T05:06:58;19.30;99.90
10312;DHT22;5201;48.776;9.128;2023-07-28T05:09:24;19.00;99.90
10312;DHT22;5201;48.776;9.128;2023-07-28T05:11:49;19.00;99.90
10312;DHT22;5201;48.776;9.128;2023-07-28T05:14:15;19.00;99.90
10312;DHT22;5201;48.776;9.128;2023-07-28T05:16:41;19.00;99.90
10312;DHT22;5201;48.776;9.128;2023-07-28T05:19:07;19.00;99.90
10312;DHT22;5201;48.776;9.128;2023-07-28T05:21:35;18.90;99.90
10312;DHT22;5201;48.776;9.128;2023-07-28T05:24:02;18.80;99.90
10312;DHT22;5201;48.776;9.128;2023-07-28T05:26:27;18.70;99.90
10312;DHT22;5201;48.776;9.128;2023-07-28T05:28:53;20.60;99.90
10312;DHT22;5201;48.776;9.128;2023-07-28T05:31:18;18.80;99.90
10312;DHT22;5201;48.776;9.128;2023-07-28T05:33:44;18.80;99.90
10312;DHT22;5201;48.776;9.128;2023-07-28T05:36:09;18.80;99.90
10312;DHT22;5201;48.776;9.128;2023-07-28T05:38:35;18.90;99.90
10312;DHT22;5201;48.776;9.128;2023-07-28T05:41:02;18.90;99.90
10312;DHT22;5201;48.776;9.128;2023-07-28T05:43:32;19.20;99.90
10312;DHT22;5201;48.776;9.128;2023-07-28T05:45:59;18.90;99.90
10312;DHT22;5201;48.776;9.128;2023-07-28T05:48:25;18.90;99.90
10312;DHT22;5201;48.776;9.128;2023-07-28T05:50:51;18.90;99.90
10312;DHT22;5201;48.776;9.128;2023-07-28T05:53:19;18.90;99.90
10312;DHT22;5201;48.776;9.128;2023-07-28T05:55:45;18.90;99.90
10312;DHT22;5201;48.776;9.128;2023-07-28T05:58:10;19.00;99.90
10312;DHT22;5201;48.776;9.128;2023-07-28T06:00:39;19.00;99.90
10312;DHT22;5201;48.776;9.128;2023-07-28T06:03:15;19.00;99.90
10312;DHT22;5201;48.776;9.128;2023-07-28T06:05:41;19.00;99.90
10312;DHT22;5201;48.776;9.128;2023-07-28T06:08:07;18.90;99.90
10312;DHT22;5201;48.776;9.128;2023-07-28T06:10:33;19.30;99.90
10312;DHT22;5201;48.776;9.128;2023-07-28T06:12:59;19.00;99.90
10312;DHT22;5201;48.776;9.128;2023-07-28T06:15:25;19.00;99.90
10312;DHT22;5201;48.776;9.128;2023-07-28T06:17:51;18.90;99.90
10312;DHT22;5201;48.776;9.128;2023-07-28T06:20:16;19.30;99.90
10312;DHT22;5201;48.776;9.128;2023-07-28T06:22:42;18.90;99.90
10312;DHT22;5201;48.776;9.128;2023-07-28T06:25:08;19.00;99.90
10312;DHT22;5201;48.776;9.128;2023-07-28T06:27:33;19.00;99.90
10312;DHT22;5201;48.776;9.128;2023-07-28T06:29:59;19.00;99.90
10312;DHT22;5201;48.776;9.128;2023-07-28T06:32:24;19.00;99.90
10312;DHT22;5201;48.776;9.128;2023-07-28T06:34:50;19.20;99.90
10312;DHT22;5201;48.776;9.128;2023-07-28T06:37:17;19.10;99.90
10312;DHT22;5201;48.776;9.128;2023-07-28T06:39:42;19.10;99.90
10312;DHT22;5201;48.776;9.128;2023-07-28T06:42:08;19.10;99.90
10312;DHT22;5201;48.776;9.128;2023-07-28T06:44:33;19.30;99.90
10312;DHT22;5201;48.776;9.128;2023-07-28T06:46:59;19.10;99.90
10312;DHT22;5201;48.776;9.128;2023-07-28T06:49:25;19.10;99.90
10312;DHT22;5201;48.776;9.128;2023-07-28T06:51:50;19.10;99.90
10312;DHT22;5201;48.776;9.128;2023-07-28T06:54:16;19.10;99.90
10312;DHT22;5201;48.776;9.128;2023-07-28T06:56:41;19.40;99.90
10312;DHT22;5201;48.776;9.128;2023-07-28T06:59:07;19.20;99.90
10312;DHT22;5201;48.776;9.128;2023-07-28T07:01:34;19.30;99.90
10312;DHT22;5201;48.776;9.128;2023-07-28T07:03:59;19.40;99.90
10312;DHT22;5201;48.776;9.128;2023-07-28T07:06:26;19.40;99.90
10312;DHT22;5201;48.776;9.128;2023-07-28T07:08:51;19.50;99.90
10312;DHT22;5201;48.776;9.128;2023-07-28T07:11:18;19.50;99.90
10312;DHT22;5201;48.776;9.128;2023-07-28T07:13:43;19.50;99.90
10312;DHT22;5201;48.776;9.128;2023-07-28T07:16:15;19.70;99.90
10312;DHT22;5201;48.776;9.128;2023-07-28T07:18:42;19.60;99.90
10312;DHT22;5201;48.776;9.128;2023-07-28T07:21:09;20.00;99.90
10312;DHT22;5201;48.776;9.128;2023-07-28T07:23:35;19.70;99.90
10312;DHT22;5201;48.776;9.128;2023-07-28T07:26:01;19.70;99.90
10312;DHT22;5201;48.776;9.128;2023-07-28T07:28:27;19.80;99.90
10312;DHT22;5201;48.776;9.128;2023-07-28T07:30:55;19.80;99.90
10312;DHT22;5201;48.776;9.128;2023-07-28T07:33:20;19.90;99.90
10312;DHT22;5201;48.776;9.128;2023-07-28T07:35:46;20.10;99.90
10312;DHT22;5201;48.776;9.128;2023-07-28T07:38:12;20.10;99.90
10312;DHT22;5201;48.776;9.128;2023-07-28T07:40:37;20.20;99.90
10312;DHT22;5201;48.776;9.128;2023-07-28T07:43:03;20.30;99.90
10312;DHT22;5201;48.776;9.128;2023-07-28T07:45:30;20.40;99.90
10312;DHT22;5201;48.776;9.128;2023-07-28T07:47:56;20.50;99.90
10312;DHT22;5201;48.776;9.128;2023-07-28T07:50:21;20.50;99.90
10312;DHT22;5201;48.776;9.128;2023-07-28T07:52:47;20.50;99.90
10312;DHT22;5201;48.776;9.128;2023-07-28T07:55:13;20.50;99.90
10312;DHT22;5201;48.776;9.128;2023-07-28T07:57:40;20.50;99.90
10312;DHT22;5201;48.776;9.128;2023-07-28T08:00:06;20.50;99.90
10312;DHT22;5201;48.776;9.128;2023-07-28T08:02:31;20.60;99.90
10312;DHT22;5201;48.776;9.128;2023-07-28T08:04:57;20.70;99.90
10312;DHT22;5201;48.776;9.128;2023-07-28T08:07:23;20.70;99.90
10312;DHT22;5201;48.776;9.128;2023-07-28T08:09:49;20.80;99.90
10312;DHT22;5201;48.776;9.128;2023-07-28T08:12:15;20.70;99.90
10312;DHT22;5201;48.776;9.128;2023-07-28T08:14:41;20.70;99.90
10312;DHT22;5201;48.776;9.128;2023-07-28T08:17:08;20.70;99.90
10312;DHT22;5201;48.776;9.128;2023-07-28T08:19:34;20.70;99.90
10312;DHT22;5201;48.776;9.128;2023-07-28T08:22:01;20.90;99.90
10312;DHT22;5201;48.776;9.128;2023-07-28T08:24:28;20.70;99.90
10312;DHT22;5201;48.776;9.128;2023-07-28T08:26:54;20.70;99.90
10312;DHT22;5201;48.776;9.128;2023-07-28T08:29:20;20.70;99.90
10312;DHT22;5201;48.776;9.128;2023-07-28T08:31:45;20.70;99.90
10312;DHT22;5201;48.776;9.128;2023-07-28T08:34:12;20.70;99.90
10312;DHT22;5201;48.776;9.128;2023-07-28T08:36:38;20.70;99.90
10312;DHT22;5201;48.776;9.128;2023-07-28T08:39:04;20.70;99.90
10312;DHT22;5201;48.776;9.128;2023-07-28T08:41:30;20.70;99.90
10312;DHT22;5201;48.776;9.128;2023-07-28T08:43:55;20.90;99.90
10312;DHT22;5201;48.776;9.128;2023-07-28T08:46:21;20.80;99.90
10312;DHT22;5201;48.776;9.128;2023-07-28T08:48:47;20.80;99.90
10312;DHT22;5201;48.776;9.128;2023-07-28T08:51:13;20.80;99.90
10312;DHT22;5201;48.776;9.128;2023-07-28T08:53:39;21.00;99.90
10312;DHT22;5201;48.776;9.128;2023-07-28T08:56:05;21.10;99.90
10312;DHT22;5201;48.776;9.128;2023-07-28T08:58:31;21.20;99.90
10312;DHT22;5201;48.776;9.128;2023-07-28T09:00:57;21.30;99.90
10312;DHT22;5201;48.776;9.128;2023-07-28T09:03:26;21.40;99.90
10312;DHT22;5201;48.776;9.128;2023-07-28T09:06:02;21.30;99.90
10312;DHT22;5201;48.776;9.128;2023-07-28T09:08:30;21.30;99.90
10312;DHT22;5201;48.776;9.128;2023-07-28T09:10:56;21.30;99.90
10312;DHT22;5201;48.776;9.128;2023-07-28T09:13:21;21.20;99.90
10312;DHT22;5201;48.776;9.128;2023-07-28T09:15:47;21.20;99.90
10312;DHT22;5201;48.776;9.128;2023-07-28T09:18:15;21.20;99.90
10312;DHT22;5201;48.776;9.128;2023-07-28T09:20:41;21.40;99.90
10312;DHT22;5201;48.776;9.128;2023-07-28T09:23:08;21.20;99.90
10312;DHT22;5201;48.776;9.128;2023-07-28T09:25:35;21.20;99.90
10312;DHT22;5201;48.776;9.128;2023-07-28T09:28:01;21.10;99.90
10312;DHT22;5201;48.776;9.128;2023-07-28T09:30:46;21.20;99.90
10312;DHT22;5201;48.776;9.128;2023-07-28T09:33:12;21.40;99.90
10312;DHT22;5201;48.776;9.128;2023-07-28T09:35:48;21.60;99.90
10312;DHT22;5201;48.776;9.128;2023-07-28T09:38:14;21.80;99.90
10312;DHT22;5201;48.776;9.128;2023-07-28T09:40:40;21.90;99.90
10312;DHT22;5201;48.776;9.128;2023-07-28T09:43:07;22.00;99.90
10312;DHT22;5201;48.776;9.128;2023-07-28T09:45:34;22.00;99.90
10312;DHT22;5201;48.776;9.128;2023-07-28T09:48:02;22.00;99.90
10312;DHT22;5201;48.776;9.128;2023-07-28T09:50:32;22.00;99.90
10312;DHT22;5201;48.776;9.128;2023-07-28T09:53:02;22.00;99.90
10312;DHT22;5201;48.776;9.128;2023-07-28T09:55:28;22.00;99.90
10312;DHT22;5201;48.776;9.128;2023-07-28T09:57:56;21.90;99.90
10312;DHT22;5201;48.776;9.128;2023-07-28T10:00:23;21.90;99.90
10312;DHT22;5201;48.776;9.128;2023-07-28T10:02:49;21.80;99.90
10312;DHT22;5201;48.776;9.128;2023-07-28T10:05:18;21.90;99.90
10312;DHT22;5201;48.776;9.128;2023-07-28T10:07:46;21.90;99.90
10312;DHT22;5201;48.776;9.128;2023-07-28T10:10:13;21.90;99.90
10312;DHT22;5201;48.776;9.128;2023-07-28T10:12:47;21.90;99.90
10312;DHT22;5201;48.776;9.128;2023-07-28T10:15:15;21.90;99.90
10312;DHT22;5201;48.776;9.128;2023-07-28T10:17:47;21.60;99.90
10312;DHT22;5201;48.776;9.128;2023-07-28T10:23:14;21.20;99.90
10312;DHT22;5201;48.776;9.128;2023-07-28T10:25:41;21.00;99.90
10312;DHT22;5201;48.776;9.128;2023-07-28T10:30:54;21.50;99.90
10312;DHT22;5201;48.776;9.128;2023-07-28T10:33:40;21.10;99.90
10312;DHT22;5201;48.776;9.128;2023-07-28T10:39:20;21.30;99.90
10312;DHT22;5201;48.776;9.128;2023-07-28T10:42:04;21.40;99.90
10312;DHT22;5201;48.776;9.128;2023-07-28T10:44:30;21.50;99.90
10312;DHT22;5201;48.776;9.128;2023-07-28T10:46:56;21.60;99.90
10312;DHT22;5201;48.776;9.128;2023-07-28T10:49:27;21.70;99.90
10312;DHT22;5201;48.776;9.128;2023-07-28T10:51:53;21.70;99.90
10312;DHT22;5201;48.776;9.128;2023-07-28T10:54:18;21.80;99.90
10312;DHT22;5201;48.776;9.128;2023-07-28T10:56:46;22.00;99.90
10312;DHT22;5201;48.776;9.128;2023-07-28T10:59:13;22.00;99.90
10312;DHT22;5201;48.776;9.128;2023-07-28T11:01:40;22.10;99.90
10312;DHT22;5201;48.776;9.128;2023-07-28T11:04:14;22.20;99.90
10312;DHT22;5201;48.776;9.128;2023-07-28T11:06:42;22.40;99.90
10312;DHT22;5201;48.776;9.128;2023-07-28T11:09:09;22.50;99.90
10312;DHT22;5201;48.776;9.128;2023-07-28T11:11:36;22.70;99.90
10312;DHT22;5201;48.776;9.128;2023-07-28T11:14:05;22.80;99.90
10312;DHT22;5201;48.776;9.128;2023-07-28T11:16:36;23.10;99.90
10312;DHT22;5201;48.776;9.128;2023-07-28T11:19:03;23.30;99.90
10312;DHT22;5201;48.776;9.128;2023-07-28T11:21:36;23.50;99.90
10312;DHT22;5201;48.776;9.128;2023-07-28T11:24:03;23.70;99.90
10312;DHT22;5201;48.776;9.128;2023-07-28T11:26:28;21.90;99.90
10312;DHT22;5201;48.776;9.128;2023-07-28T11:28:54;24.10;99.90
10312;DHT22;5201;48.776;9.128;2023-07-28T11:31:23;24.20;99.90
10312;DHT22;5201;48.776;9.128;2023-07-28T11:33:51;24.20;99.90
10312;DHT22;5201;48.776;9.128;2023-07-28T11:36:25;24.10;99.90
10312;DHT22;5201;48.776;9.128;2023-07-28T11:38:53;24.00;99.90
10312;DHT22;5201;48.776;9.128;2023-07-28T11:41:19;23.90;99.90
10312;DHT22;5201;48.776;9.128;2023-07-28T11:43:47;23.90;99.90
10312;DHT22;5201;48.776;9.128;2023-07-28T11:46:52;23.90;99.90
10312;DHT22;5201;48.776;9.128;2023-07-28T11:49:21;23.90;99.90
10312;DHT22;5201;48.776;9.128;2023-07-28T11:51:53;24.00;99.90
10312;DHT22;5201;48.776;9.128;2023-07-28T11:54:25;23.90;99.90
10312;DHT22;5201;48.776;9.128;2023-07-28T11:56:55;23.90;99.90
10312;DHT22;5201;48.776;9.128;2023-07-28T11:59:21;23.80;99.90
10312;DHT22;5201;48.776;9.128;2023-07-28T12:04:27;23.70;99.90
10312;DHT22;5201;48.776;9.128;2023-07-28T12:12:15;23.50;99.90
10312;DHT22;5201;48.776;9.128;2023-07-28T12:14:41;23.30;99.90
10312;DHT22;5201;48.776;9.128;2023-07-28T12:17:14;23.30;99.90
10312;DHT22;5201;48.776;9.128;2023-07-28T12:20:02;23.20;99.90
10312;DHT22;5201;48.776;9.128;2023-07-28T12:22:27;23.20;99.90
10312;DHT22;5201;48.776;9.128;2023-07-28T12:24:56;23.20;99.90
10312;DHT22;5201;48.776;9.128;2023-07-28T12:27:22;23.10;99.90
10312;DHT22;5201;48.776;9.128;2023-07-28T12:29:50;23.10;99.90
10312;DHT22;5201;48.776;9.128;2023-07-28T12:32:17;23.20;99.90
10312;DHT22;5201;48.776;9.128;2023-07-28T12:34:42;23.20;99.90
10312;DHT22;5201;48.776;9.128;2023-07-28T12:37:08;23.20;99.90
10312;DHT22;5201;48.776;9.128;2023-07-28T12:39:38;23.10;99.90
10312;DHT22;5201;48.776;9.128;2023-07-28T12:42:10;23.10;99.90
10312;DHT22;5201;48.776;9.128;2023-07-28T12:44:40;23.10;99.90
10312;DHT22;5201;48.776;9.128;2023-07-28T12:47:05;23.10;99.90
10312;DHT22;5201;48.776;9.128;2023-07-28T12:49:31;23.10;99.90
10312;DHT22;5201;48.776;9.128;2023-07-28T12:51:59;23.20;99.90
10312;DHT22;5201;48.776;9.128;2023-07-28T12:54:25;23.30;99.90
10312;DHT22;5201;48.776;9.128;2023-07-28T12:56:51;23.30;99.90
10312;DHT22;5201;48.776;9.128;2023-07-28T12:59:17;23.40;99.90
10312;DHT22;5201;48.776;9.128;2023-07-28T13:01:43;23.40;99.90
10312;DHT22;5201;48.776;9.128;2023-07-28T13:04:08;23.40;99.90
10312;DHT22;5201;48.776;9.128;2023-07-28T13:06:34;23.30;99.90
10312;DHT22;5201;48.776;9.128;2023-07-28T13:08:59;23.30;99.90
10312;DHT22;5201;48.776;9.128;2023-07-28T13:11:25;23.30;99.90
10312;DHT22;5201;48.776;9.128;2023-07-28T13:13:51;23.20;99.90
10312;DHT22;5201;48.776;9.128;2023-07-28T13:16:16;23.20;99.90
10312;DHT22;5201;48.776;9.128;2023-07-28T13:18:43;23.20;99.90
10312;DHT22;5201;48.776;9.128;2023-07-28T13:21:09;23.20;99.90
10312;DHT22;5201;48.776;9.128;2023-07-28T13:23:38;23.20;99.90
10312;DHT22;5201;48.776;9.128;2023-07-28T13:26:04;23.10;99.90
10312;DHT22;5201;48.776;9.128;2023-07-28T13:28:30;23.00;99.90
10312;DHT22;5201;48.776;9.128;2023-07-28T13:30:55;22.90;99.90
10312;DHT22;5201;48.776;9.128;2023-07-28T13:33:21;22.80;99.90
10312;DHT22;5201;48.776;9.128;2023-07-28T13:35:47;22.70;99.90
10312;DHT22;5201;48.776;9.128;2023-07-28T13:38:12;22.60;99.90
10312;DHT22;5201;48.776;9.128;2023-07-28T13:40:38;22.50;99.90
10312;DHT22;5201;48.776;9.128;2023-07-28T13:43:04;22.40;99.90
10312;DHT22;5201;48.776;9.128;2023-07-28T13:45:29;22.20;99.90
10312;DHT22;5201;48.776;9.128;2023-07-28T13:47:55;22.20;99.90
10312;DHT22;5201;48.776;9.128;2023-07-28T13:50:21;22.10;99.90
10312;DHT22;5201;48.776;9.128;2023-07-28T13:52:46;22.00;99.90
10312;DHT22;5201;48.776;9.128;2023-07-28T13:55:12;21.90;99.90
10312;DHT22;5201;48.776;9.128;2023-07-28T13:57:38;21.80;99.90
10312;DHT22;5201;48.776;9.128;2023-07-28T14:00:05;21.70;99.90
10312;DHT22;5201;48.776;9.128;2023-07-28T14:02:37;21.60;99.90
10312;DHT22;5201;48.776;9.128;2023-07-28T14:05:04;21.50;99.90
10312;DHT22;5201;48.776;9.128;2023-07-28T14:07:30;21.50;99.90
10312;DHT22;5201;48.776;9.128;2023-07-28T14:09:56;21.40;99.90
10312;DHT22;5201;48.776;9.128;2023-07-28T14:12:22;21.10;99.90
10312;DHT22;5201;48.776;9.128;2023-07-28T14:14:47;20.60;99.90
10312;DHT22;5201;48.776;9.128;2023-07-28T14:17:15;20.50;99.90
10312;DHT22;5201;48.776;9.128;2023-07-28T14:19:41;20.60;99.90
10312;DHT22;5201;48.776;9.128;2023-07-28T14:22:07;20.60;99.90
10312;DHT22;5201;48.776;9.128;2023-07-28T14:24:33;20.70;99.90
10312;DHT22;5201;48.776;9.128;2023-07-28T14:26:58;20.70;99.90
10312;DHT22;5201;48.776;9.128;2023-07-28T14:29:24;20.80;99.90
10312;DHT22;5201;48.776;9.128;2023-07-28T14:31:50;20.90;99.90
10312;DHT22;5201;48.776;9.128;2023-07-28T14:34:15;20.90;99.90
10312;DHT22;5201;48.776;9.128;2023-07-28T14:36:41;20.90;99.90
10312;DHT22;5201;48.776;9.128;2023-07-28T14:39:07;21.00;99.90
10312;DHT22;5201;48.776;9.128;2023-07-28T14:41:35;21.00;99.90
10312;DHT22;5201;48.776;9.128;2023-07-28T14:44:00;20.70;99.90
10312;DHT22;5201;48.776;9.128;2023-07-28T14:46:26;20.40;99.90
10312;DHT22;5201;48.776;9.128;2023-07-28T14:48:52;20.20;99.90
10312;DHT22;5201;48.776;9.128;2023-07-28T14:51:18;20.30;99.90
10312;DHT22;5201;48.776;9.128;2023-07-28T14:53:44;20.50;99.90
10312;DHT22;5201;48.776;9.128;2023-07-28T14:56:12;20.60;99.90
10312;DHT22;5201;48.776;9.128;2023-07-28T14:58:38;20.70;99.90
10312;DHT22;5201;48.776;9.128;2023-07-28T15:01:04;20.80;99.90
10312;DHT22;5201;48.776;9.128;2023-07-28T15:03:31;20.90;99.90
10312;DHT22;5201;48.776;9.128;2023-07-28T15:05:57;21.00;99.90
10312;DHT22;5201;48.776;9.128;2023-07-28T15:08:23;21.00;99.90
10312;DHT22;5201;48.776;9.128;2023-07-28T15:10:49;21.00;99.90
10312;DHT22;5201;48.776;9.128;2023-07-28T15:13:14;21.10;99.90
10312;DHT22;5201;48.776;9.128;2023-07-28T15:15:40;21.10;99.90
10312;DHT22;5201;48.776;9.128;2023-07-28T15:18:06;21.10;99.90
10312;DHT22;5201;48.776;9.128;2023-07-28T15:20:33;21.20;99.90
10312;DHT22;5201;48.776;9.128;2023-07-28T15:22:59;21.20;99.90
10312;DHT22;5201;48.776;9.128;2023-07-28T15:25:25;21.30;99.90
10312;DHT22;5201;48.776;9.128;2023-07-28T15:27:51;21.40;99.90
10312;DHT22;5201;48.776;9.128;2023-07-28T15:30:17;21.40;99.90
10312;DHT22;5201;48.776;9.128;2023-07-28T15:32:42;21.50;99.90
10312;DHT22;5201;48.776;9.128;2023-07-28T15:35:08;21.50;99.90
10312;DHT22;5201;48.776;9.128;2023-07-28T15:37:36;21.50;99.90
10312;DHT22;5201;48.776;9.128;2023-07-28T15:40:02;21.40;99.90
10312;DHT22;5201;48.776;9.128;2023-07-28T15:42:28;21.30;99.90
10312;DHT22;5201;48.776;9.128;2023-07-28T15:44:53;21.20;99.90
10312;DHT22;5201;48.776;9.128;2023-07-28T15:47:19;21.10;99.90
10312;DHT22;5201;48.776;9.128;2023-07-28T15:49:45;21.10;99.90
10312;DHT22;5201;48.776;9.128;2023-07-28T15:52:10;21.10;99.90
10312;DHT22;5201;48.776;9.128;2023-07-28T15:54:36;21.20;99.90
10312;DHT22;5201;48.776;9.128;2023-07-28T15:57:01;21.10;99.90
10312;DHT22;5201;48.776;9.128;2023-07-28T15:59:29;21.10;99.90